Time;durP1;ratioP1;P1;durP2;ratioP2;P2;SDS_P1;SDS_P2;PMS_P1;PMS_P2;Temp;Humidity;BMP_temperature;BMP_pressure;BME280_temperature;BME280_humidity;BME280_pressure;Samples;Min_cycle;Max_cycle;Signal;HPM_P1;HPM_P2
2021/06/24 00:06:04;;;;;;;15.90;5.00;;;;;;;24.87;100.00;99026.76;1711480;82;20936;-70
2021/06/24 00:08:35;;;;;;;16.87;5.55;;;;;;;24.85;100.00;99026.86;1703300;82;21019;-70
2021/06/24 00:11:08;;;;;;;14.00;5.75;;;;;;;24.84;100.00;99027.83;1710395;82;20887;-70
2021/06/24 00:13:38;;;;;;;11.50;5.65;;;;;;;24.80;100.00;99024.95;1711857;83;20978;-70
2021/06/24 00:16:08;;;;;;;16.37;6.08;;;;;;;24.75;100.00;99029.30;1702604;82;21502;-71
2021/06/24 00:18:37;;;;;;;13.78;5.53;;;;;;;24.74;100.00;99030.75;1704102;83;21110;-71
2021/06/24 00:21:08;;;;;;;9.08;5.20;;;;;;;24.71;100.00;99023.73;1709453;82;21093;-70
2021/06/24 00:23:38;;;;;;;16.27;5.17;;;;;;;24.69;100.00;99026.14;1716102;82;21071;-71
2021/06/24 00:26:07;;;;;;;14.03;5.97;;;;;;;24.67;100.00;99019.50;1724216;82;21178;-70
2021/06/24 00:28:37;;;;;;;14.30;5.47;;;;;;;24.66;100.00;99024.52;1723455;82;20988;-70
2021/06/24 00:31:08;;;;;;;15.70;6.05;;;;;;;24.67;100.00;99026.73;1704530;82;20957;-72
2021/06/24 00:33:38;;;;;;;12.35;5.55;;;;;;;24.66;100.00;99029.91;1722416;82;20936;-69
2021/06/24 00:36:07;;;;;;;11.43;5.30;;;;;;;24.64;100.00;99037.72;1717258;82;20869;-71
2021/06/24 00:38:38;;;;;;;11.97;5.30;;;;;;;24.63;100.00;99041.38;1741604;82;21140;-70
2021/06/24 00:41:09;;;;;;;14.25;5.00;;;;;;;24.63;100.00;99040.90;1705983;82;20972;-71
2021/06/24 00:43:37;;;;;;;16.40;6.45;;;;;;;24.63;100.00;99040.90;1690267;83;21113;-70
2021/06/24 00:46:09;;;;;;;16.57;6.20;;;;;;;24.62;100.00;99044.56;1696212;82;21040;-71
2021/06/24 00:48:38;;;;;;;13.50;5.83;;;;;;;24.61;100.00;99043.31;1690864;82;20916;-70
2021/06/24 00:51:06;;;;;;;11.80;5.30;;;;;;;24.60;100.00;99056.41;1706114;82;21387;-70
2021/06/24 00:53:36;;;;;;;16.30;5.90;;;;;;;24.56;100.00;99058.41;1726996;82;20932;-70
2021/06/24 00:56:08;;;;;;;13.80;5.42;;;;;;;24.58;100.00;99051.09;1720475;82;21008;-70
2021/06/24 00:58:38;;;;;;;15.63;5.47;;;;;;;24.57;100.00;99049.36;1708138;82;21526;-70
2021/06/24 01:01:09;;;;;;;;;;;;;;;24.55;100.00;99047.72;1710442;82;21488;-70
2021/06/24 01:03:40;;;;;;;18.80;6.00;;;;;;;24.54;100.00;99038.77;1708451;82;21153;-71
2021/06/24 01:06:11;;;;;;;14.65;6.00;;;;;;;24.52;100.00;99039.35;1724379;82;20925;-71
2021/06/24 01:08:42;;;;;;;14.75;5.30;;;;;;;24.52;100.00;99044.74;1693138;83;21912;-69
2021/06/24 01:11:12;;;;;;;15.20;6.08;;;;;;;24.52;100.00;99041.19;1692664;82;21573;-70
2021/06/24 01:13:45;;;;;;;18.07;6.25;;;;;;;24.52;100.00;99041.19;1689795;83;20972;-72
2021/06/24 01:16:13;;;;;;;15.03;5.40;;;;;;;24.51;100.00;99034.05;1706115;82;21551;-70
2021/06/24 01:18:43;;;;;;;16.55;6.12;;;;;;;24.50;100.00;99031.84;1700272;83;20951;-69
2021/06/24 01:21:14;;;;;;;17.10;5.67;;;;;;;24.49;100.00;99040.42;1697391;82;21058;-71
2021/06/24 01:23:43;;;;;;;13.93;5.97;;;;;;;24.47;100.00;99037.44;1697864;82;21032;-71
2021/06/24 01:26:15;;;;;;;22.13;5.53;;;;;;;24.45;100.00;99046.97;1710741;82;21005;-69
2021/06/24 01:28:45;;;;;;;18.10;5.60;;;;;;;24.43;100.00;99045.34;1709239;83;21153;-70
2021/06/24 01:31:15;;;;;;;15.00;5.03;;;;;;;24.39;100.00;99043.33;1712931;83;21443;-70
2021/06/24 01:33:44;;;;;;;14.13;5.50;;;;;;;24.39;100.00;99043.33;1694756;82;20972;-69
2021/06/24 01:36:16;;;;;;;16.87;5.53;;;;;;;24.35;100.00;99040.44;1703017;83;20979;-69
2021/06/24 01:38:46;;;;;;;13.20;5.70;;;;;;;24.32;100.00;99039.29;1689985;82;20932;-71
2021/06/24 01:41:25;;;;;;;16.73;6.08;;;;;;;24.26;100.00;99027.52;1707000;82;23162;-68
2021/06/24 01:43:56;;;;;;;18.15;5.58;;;;;;;24.28;100.00;99040.45;1714740;82;21086;-71
2021/06/24 01:46:25;;;;;;;19.55;6.03;;;;;;;24.28;100.00;99042.28;1696792;82;20983;-70
2021/06/24 01:48:58;;;;;;;16.62;5.37;;;;;;;24.26;100.00;99043.69;1693641;82;20912;-70
2021/06/24 01:51:31;;;;;;;17.80;6.22;;;;;;;24.26;100.00;99036.09;1696842;82;20933;-71
2021/06/24 01:54:01;;;;;;;16.30;5.97;;;;;;;24.26;100.00;99034.26;1707440;82;21029;-71
2021/06/24 01:56:30;;;;;;;18.05;6.00;;;;;;;24.25;100.00;99039.27;1696365;82;20956;-72
2021/06/24 01:59:01;;;;;;;15.43;5.25;;;;;;;24.24;100.00;99042.92;1667683;84;21019;-73
2021/06/24 02:01:36;;;;;;;11.97;5.65;;;;;;;24.23;100.00;99046.58;1678937;84;20979;-73
2021/06/24 02:04:13;;;;;;;13.43;5.47;;;;;;;24.22;100.00;99052.94;1711715;82;20964;-72
2021/06/24 02:06:46;;;;;;;16.40;5.78;;;;;;;24.21;100.00;99048.51;1693048;83;21411;-72
2021/06/24 02:09:17;;;;;;;12.98;5.58;;;;;;;24.17;100.00;99051.02;1712893;82;20916;-72
2021/06/24 02:11:57;;;;;;;23.77;6.50;;;;;;;24.16;100.00;99049.28;1684897;83;20947;-72
2021/06/24 02:14:29;;;;;;;13.50;5.58;;;;;;;24.13;100.00;99042.26;1711504;83;21107;-71
2021/06/24 02:17:00;;;;;;;17.40;6.10;;;;;;;24.13;100.00;99045.44;1726862;82;20889;-71
2021/06/24 02:19:30;;;;;;;20.40;6.58;;;;;;;24.11;100.00;99039.24;1704203;82;21172;-70
2021/06/24 02:22:20;;;;;;;14.98;5.35;;;;;;;24.08;100.00;99043.48;1707597;82;20868;-76
2021/06/24 02:24:51;;;;;;;14.93;5.60;;;;;;;24.07;100.00;99046.66;1712603;82;20928;-75
2021/06/24 02:27:19;;;;;;;12.15;5.72;;;;;;;24.08;100.00;99048.39;1734400;82;21380;-71
2021/06/24 02:30:07;;;;;;;16.85;5.87;;;;;;;24.07;100.00;99046.66;1644286;85;20971;-69
2021/06/24 02:32:36;;;;;;;21.83;6.30;;;;;;;24.06;100.00;99057.05;1695494;82;21151;-68
2021/06/24 02:35:09;;;;;;;17.37;5.33;;;;;;;24.05;100.00;99060.70;1698926;82;20925;-69
2021/06/24 02:37:44;;;;;;;11.38;5.53;;;;;;;24.04;100.00;99064.36;1696404;82;20964;-70
2021/06/24 02:40:33;;;;;;;17.92;5.53;;;;;;;24.05;100.00;99059.36;1692212;83;21023;-73
2021/06/24 02:43:04;;;;;;;18.70;6.08;;;;;;;24.04;100.00;99064.36;1709042;82;20986;-70
2021/06/24 02:45:42;;;;;;;15.18;6.12;;;;;;;24.04;100.00;99065.71;1707829;82;21124;-70
2021/06/24 02:48:06;;;;;;;12.78;5.28;;;;;;;24.02;100.00;99067.63;1708683;82;20976;-70
2021/06/24 02:50:37;;;;;;;9.88;4.90;;;;;;;24.04;100.00;99068.88;1701535;82;21390;-70
2021/06/24 02:53:08;;;;;;;14.38;5.53;;;;;;;24.05;100.00;99061.19;1714805;83;20848;-70
2021/06/24 02:55:37;;;;;;;15.35;5.90;;;;;;;24.06;100.00;99058.40;1684188;83;21464;-71
2021/06/24 02:58:06;;;;;;;19.87;6.50;;;;;;;24.06;100.00;99061.57;1715853;83;21504;-71
2021/06/24 03:00:55;;;;;;;11.88;5.90;;;;;;;24.08;100.00;99059.65;1715384;82;21455;-71
2021/06/24 03:03:35;;;;;;;17.77;6.05;;;;;;;24.09;100.00;99058.69;1717860;82;21428;-77
2021/06/24 03:06:16;;;;;;;15.68;6.00;;;;;;;24.11;100.00;99060.32;1678242;84;21154;-75
2021/06/24 03:08:44;;;;;;;16.90;5.72;;;;;;;24.12;100.00;99058.05;1703826;82;20979;-71
2021/06/24 03:11:18;;;;;;;20.05;6.45;;;;;;;24.15;100.00;99060.55;1683637;83;21033;-76
2021/06/24 03:13:49;;;;;;;18.77;5.70;;;;;;;24.17;100.00;99064.02;1696623;83;20912;-71
2021/06/24 03:16:19;;;;;;;14.30;5.47;;;;;;;24.22;100.00;99066.41;1688999;83;20984;-71
2021/06/24 03:18:49;;;;;;;13.58;6.12;;;;;;;24.26;100.00;99072.48;1708513;83;21444;-71
2021/06/24 03:21:19;;;;;;;16.15;6.05;;;;;;;24.32;100.00;99073.47;1717488;82;21470;-73
2021/06/24 03:23:47;;;;;;;16.52;5.92;;;;;;;24.35;100.00;99078.19;1719819;82;21354;-74
2021/06/24 03:26:15;;;;;;;17.82;6.40;;;;;;;24.38;100.00;99079.34;1731458;82;20920;-71
2021/06/24 03:28:44;;;;;;;18.25;6.05;;;;;;;24.39;100.00;99077.50;1703433;82;21411;-73
2021/06/24 03:31:21;;;;;;;15.48;5.75;;;;;;;24.43;100.00;99083.09;1719242;82;20932;-71
2021/06/24 03:33:49;;;;;;;13.25;5.45;;;;;;;24.48;100.00;99083.17;1713627;82;21079;-71
2021/06/24 03:36:20;;;;;;;23.62;6.28;;;;;;;24.52;100.00;99082.98;1714328;82;21115;-73
2021/06/24 03:38:49;;;;;;;21.10;6.12;;;;;;;24.56;100.00;99081.81;1713486;82;20959;-73
2021/06/24 03:41:27;;;;;;;19.92;6.33;;;;;;;24.57;100.00;99085.77;1705075;82;20918;-75
2021/06/24 03:43:57;;;;;;;19.55;6.08;;;;;;;24.61;100.00;99085.12;1705668;83;21023;-74
2021/06/24 03:46:29;;;;;;;22.20;5.87;;;;;;;24.65;100.00;99083.47;1715487;82;21007;-76
2021/06/24 03:49:00;;;;;;;17.42;5.80;;;;;;;24.68;100.00;99077.02;1711782;83;21064;-76
2021/06/24 03:51:29;;;;;;;24.07;7.15;;;;;;;24.70;100.00;99078.64;1712035;82;20939;-74
2021/06/24 03:54:07;;;;;;;15.95;5.85;;;;;;;24.72;100.00;99077.20;1705384;83;20971;-76
2021/06/24 03:56:38;;;;;;;15.08;5.67;;;;;;;24.75;100.00;99083.25;1716685;82;20995;-75
2021/06/24 03:59:21;;;;;;;17.77;6.20;;;;;;;24.79;100.00;99085.27;1714245;82;21162;-76
2021/06/24 04:01:51;;;;;;;20.10;7.30;;;;;;;24.83;100.00;99084.10;1691285;83;21492;-76
2021/06/24 04:04:22;;;;;;;16.50;6.25;;;;;;;24.87;100.00;99088.33;1693993;83;20950;-76
2021/06/24 04:07:16;;;;;;;18.80;6.62;;;;;;;24.91;100.00;99090.34;1712036;82;20949;-76
2021/06/24 04:09:51;;;;;;;20.62;6.25;;;;;;;24.93;100.00;99091.97;1707842;82;20946;-76
2021/06/24 04:12:21;;;;;;;16.67;6.08;;;;;;;24.98;100.00;99095.27;1711448;83;20981;-76
2021/06/24 04:14:52;;;;;;;;;;;;;;;25.02;100.00;99092.75;1706446;82;21943;-76
2021/06/24 04:17:30;;;;;;;22.05;6.83;;;;;;;25.06;100.00;99098.81;1714862;82;20137;-76
2021/06/24 04:20:00;;;;;;;22.50;6.45;;;;;;;25.08;100.00;99088.33;1715403;83;20959;-77
2021/06/24 04:22:37;;;;;;;20.12;6.55;;;;;;;25.13;100.00;99092.55;1699073;82;21351;-77
2021/06/24 04:25:25;;;;;;;18.48;6.80;;;;;;;25.17;100.00;99100.34;1707382;82;20900;-77
2021/06/24 04:28:05;;;;;;;14.43;6.90;;;;;;;25.24;100.00;99092.70;1720880;82;21021;-76
2021/06/24 04:30:36;;;;;;;19.85;7.20;;;;;;;25.28;100.00;99096.92;1719494;81;21002;-76
2021/06/24 04:33:06;;;;;;;22.05;6.65;;;;;;;25.32;100.00;99093.92;1707912;83;21359;-76
2021/06/24 04:35:57;;;;;;;19.62;6.00;;;;;;;25.37;100.00;99090.42;1693460;83;20909;-77
2021/06/24 04:38:18;;;;;;;22.73;6.83;;;;;;;25.43;100.00;99091.84;1692310;83;20939;-76
2021/06/24 04:40:54;;;;;;;20.37;7.20;;;;;;;25.48;100.00;99094.23;1709646;82;21090;-76
2021/06/24 04:43:25;;;;;;;22.52;7.50;;;;;;;25.51;100.00;99100.77;1701800;83;20896;-76
2021/06/24 04:45:55;;;;;;;23.32;7.03;;;;;;;25.54;100.00;99100.11;1714828;82;20940;-75
2021/06/24 04:48:25;;;;;;;22.37;6.53;;;;;;;25.59;100.00;99099.80;1727805;83;20940;-76
2021/06/24 04:50:59;;;;;;;25.50;6.87;;;;;;;25.66;100.00;99102.48;1720095;82;20982;-77
2021/06/24 04:53:31;;;;;;;22.95;7.37;;;;;;;25.74;100.00;99101.47;1698721;82;21153;-76
2021/06/24 04:56:03;;;;;;;15.80;6.92;;;;;;;25.81;100.00;99094.67;1694002;82;20953;-77
2021/06/24 04:58:34;;;;;;;27.70;6.70;;;;;;;25.86;100.00;99097.05;1695312;82;21844;-75
2021/06/24 05:01:13;;;;;;;23.87;6.58;;;;;;;25.91;100.00;99098.47;1665088;84;21636;-75
2021/06/24 05:04:00;;;;;;;26.68;8.20;;;;;;;26.00;100.00;99096.95;1709993;83;20989;-75
2021/06/24 05:06:28;;;;;;;23.87;7.65;;;;;;;26.07;100.00;99098.28;1713905;83;21119;-76
2021/06/24 05:08:58;;;;;;;25.72;7.10;;;;;;;26.17;100.00;99102.06;1717533;82;20875;-75
2021/06/24 05:11:28;;;;;;;29.75;7.90;;;;;;;26.23;100.00;99104.34;1712357;83;20935;-76
2021/06/24 05:13:56;;;;;;;23.35;6.10;;;;;;;26.30;100.00;99106.98;1710117;82;20957;-77
2021/06/24 05:16:25;;;;;;;25.82;6.97;;;;;;;26.37;100.00;99109.28;1729181;82;20986;-77
2021/06/24 05:18:53;;;;;;;26.80;7.40;;;;;;;26.45;100.00;99109.59;1715944;82;21105;-77
2021/06/24 05:21:21;;;;;;;20.05;7.65;;;;;;;26.52;100.00;99109.56;1722830;82;20879;-78
2021/06/24 05:23:49;;;;;;;24.70;7.47;;;;;;;26.59;100.00;99105.44;1722727;82;20935;-77
2021/06/24 05:26:19;;;;;;;27.27;7.17;;;;;;;26.66;100.00;99109.42;1706877;82;20899;-76
2021/06/24 05:28:47;;;;;;;29.52;6.97;;;;;;;26.73;100.00;99112.06;1706618;82;20872;-75
2021/06/24 05:31:15;;;;;;;29.07;7.30;;;;;;;26.82;100.00;99114.58;1697578;82;21116;-77
2021/06/24 05:33:43;;;;;;;28.05;6.75;;;;;;;26.88;100.00;99116.34;1708130;83;21012;-77
2021/06/24 05:36:11;;;;;;;29.90;7.10;;;;;;;26.94;100.00;99115.90;1690691;83;21538;-77
2021/06/24 05:38:38;;;;;;;25.82;7.35;;;;;;;27.02;100.00;99116.75;1710581;83;20889;-76
2021/06/24 05:41:08;;;;;;;29.95;7.60;;;;;;;27.09;100.00;99110.39;1710797;82;20921;-78
2021/06/24 05:43:35;;;;;;;24.50;6.40;;;;;;;27.17;100.00;99112.03;1713580;82;21095;-77
2021/06/24 05:46:03;;;;;;;23.38;6.95;;;;;;;27.28;100.00;99103.97;1688439;83;20916;-77
2021/06/24 05:48:35;;;;;;;30.70;6.85;;;;;;;27.42;100.00;99104.27;1660462;84;20948;-77
2021/06/24 05:51:03;;;;;;;25.27;6.63;;;;;;;27.52;100.00;99107.55;1714559;81;20948;-77
2021/06/24 05:53:33;;;;;;;29.52;6.78;;;;;;;27.65;100.00;99111.58;1718762;82;20892;-77
2021/06/24 05:56:01;;;;;;;29.75;7.80;;;;;;;27.75;100.00;99106.30;1706443;82;21112;-77
2021/06/24 05:58:29;;;;;;;29.15;7.83;;;;;;;27.85;100.00;99114.09;1731292;82;20900;-77
2021/06/24 06:01:03;;;;;;;32.33;7.17;;;;;;;27.94;100.00;99104.41;1713975;82;21501;-78
2021/06/24 06:03:28;;;;;;;31.62;7.00;;;;;;;28.05;100.00;99102.59;1710289;82;21015;-75
2021/06/24 06:05:58;;;;;;;25.02;7.10;;;;;;;28.18;100.00;99097.92;1712827;83;21070;-78
2021/06/24 06:08:27;;;;;;;30.15;7.10;;;;;;;28.32;100.00;99102.28;1708159;82;21933;-77
2021/06/24 06:10:56;;;;;;;29.72;7.28;;;;;;;28.43;100.00;99103.67;1710719;83;20973;-77
2021/06/24 06:13:24;;;;;;;26.45;7.53;;;;;;;28.52;100.00;99100.22;1691417;83;20945;-76
2021/06/24 06:15:53;;;;;;;27.93;6.50;;;;;;;28.64;100.00;99093.42;1701718;82;20900;-77
2021/06/24 06:18:26;;;;;;;24.82;6.47;;;;;;;28.74;100.00;99092.55;1698127;82;20987;-78
2021/06/24 06:20:55;;;;;;;25.37;6.42;;;;;;;28.86;100.00;99098.89;1718848;82;21934;-77
2021/06/24 06:23:24;;;;;;;32.03;6.85;;;;;;;28.97;100.00;99088.50;1719685;82;20864;-77
2021/06/24 06:25:54;;;;;;;28.07;6.42;;;;;;;29.07;100.00;99088.10;1660334;85;20927;-77
2021/06/24 06:28:23;;;;;;;30.05;6.17;;;;;;;29.17;100.00;99074.61;1716824;82;20897;-77
2021/06/24 06:30:51;;;;;;;29.72;6.47;;;;;;;29.26;100.00;99077.91;1711350;83;20853;-77
2021/06/24 06:33:24;;;;;;;26.45;6.72;;;;;;;29.34;100.00;99069.52;1715529;83;21112;-77
2021/06/24 06:35:54;;;;;;;26.65;7.55;;;;;;;29.44;100.00;99072.34;1703895;83;20976;-78
2021/06/24 06:38:22;;;;;;;30.45;6.97;;;;;;;29.53;100.00;99073.42;1709475;82;20896;-77
2021/06/24 06:40:50;;;;;;;28.52;6.50;;;;;;;29.60;100.00;99069.19;1702246;82;20930;-77
2021/06/24 06:43:19;;;;;;;29.30;6.75;;;;;;;29.67;100.00;99063.09;1702044;83;20935;-76
2021/06/24 06:45:49;;;;;;;30.97;6.17;;;;;;;29.75;100.00;99071.94;1711969;82;21069;-77
2021/06/24 06:48:16;;;;;;;33.23;6.95;;;;;;;29.81;100.00;99071.94;1713960;82;21074;-78
2021/06/24 06:50:45;;;;;;;32.73;6.97;;;;;;;29.91;100.00;99068.78;1713907;82;21079;-78
2021/06/24 06:53:13;;;;;;;29.57;7.35;;;;;;;30.01;100.00;99069.70;1712633;82;20885;-78
2021/06/24 06:55:41;;;;;;;31.75;7.25;;;;;;;30.11;100.00;99068.43;1692414;83;20925;-78
2021/06/24 06:58:09;;;;;;;23.32;6.28;;;;;;;30.17;100.00;99063.81;1697130;84;21093;-79
2021/06/24 07:00:37;;;;;;;29.23;7.72;;;;;;;30.27;100.00;99067.44;1697223;83;20940;-77
2021/06/24 07:03:05;;;;;;;32.63;6.97;;;;;;;30.36;100.00;99067.52;1704937;83;20995;-77
2021/06/24 07:05:33;;;;;;;27.67;6.00;;;;;;;30.47;100.00;99061.61;1692369;83;20962;-78
2021/06/24 07:08:02;;;;;;;40.52;6.47;;;;;;;30.56;100.00;99056.70;1711769;83;20868;-78
2021/06/24 07:10:29;;;;;;;30.27;6.58;;;;;;;30.62;100.00;99045.30;1713089;83;21101;-78
2021/06/24 07:12:57;;;;;;;31.48;6.37;;;;;;;30.68;100.00;99052.41;1715363;82;20876;-78
2021/06/24 07:15:25;;;;;;;36.20;7.28;;;;;;;30.72;100.00;99050.27;1723147;82;20962;-76
2021/06/24 07:17:54;;;;;;;37.10;6.72;;;;;;;30.74;100.00;99050.13;1715170;82;20920;-76
2021/06/24 07:20:23;;;;;;;34.70;6.17;;;;;;;30.77;100.00;99051.23;1718650;82;20948;-77
2021/06/24 07:22:51;;;;;;;27.25;6.25;;;;;;;30.81;100.00;99052.68;1708146;82;21110;-75
2021/06/24 07:25:19;;;;;;;45.03;6.85;;;;;;;30.89;100.00;99058.29;1711916;82;20877;-74
2021/06/24 07:27:47;;;;;;;34.48;6.80;;;;;;;30.98;100.00;99054.72;1703528;82;20987;-78
2021/06/24 07:30:17;;;;;;;27.27;6.40;;;;;;;31.08;100.00;99050.15;1716260;82;21003;-78
2021/06/24 07:32:45;;;;;;;31.33;6.05;;;;;;;31.16;100.00;99052.20;1714835;82;20957;-79
2021/06/24 07:35:14;;;;;;;37.80;6.65;;;;;;;31.24;100.00;99047.78;1709945;82;21112;-78
2021/06/24 07:37:44;;;;;;;31.45;6.83;;;;;;;31.33;100.00;99055.61;1721665;82;20881;-76
2021/06/24 07:40:13;;;;;;;38.02;6.87;;;;;;;31.40;100.00;99054.53;1707793;82;20897;-77
2021/06/24 07:42:40;;;;;;;31.60;6.50;;;;;;;31.43;100.00;99051.52;1716023;83;21068;-77
2021/06/24 07:45:10;;;;;;;44.00;7.50;;;;;;;31.48;100.00;99054.67;1701146;82;20982;-76
2021/06/24 07:47:37;;;;;;;48.05;7.15;;;;;;;31.51;100.00;99049.79;1713056;83;21107;-76
2021/06/24 07:50:05;;;;;;;32.23;6.95;;;;;;;31.55;100.00;99053.09;1712471;82;20858;-76
2021/06/24 07:52:33;;;;;;;54.98;7.83;;;;;;;31.60;100.00;99053.02;1708199;82;20899;-74
2021/06/24 07:55:01;;;;;;;31.20;7.03;;;;;;;31.68;100.00;99052.28;1691164;83;20908;-76
2021/06/24 07:57:30;;;;;;;34.27;6.60;;;;;;;31.75;100.00;99051.27;1702224;83;20973;-76
2021/06/24 07:59:58;;;;;;;48.75;7.87;;;;;;;31.85;100.00;99058.92;1709883;83;21948;-76
2021/06/24 08:02:26;;;;;;;44.95;7.50;;;;;;;31.94;100.00;99045.77;1713412;82;21391;-75
2021/06/24 08:04:54;;;;;;;34.13;7.22;;;;;;;32.04;100.00;99044.38;1714313;82;20968;-76
2021/06/24 08:07:22;;;;;;;34.78;6.80;;;;;;;32.13;100.00;99037.53;1724271;81;20938;-76
2021/06/24 08:09:52;;;;;;;42.35;7.47;;;;;;;32.21;100.00;99039.55;1731673;82;20921;-77
2021/06/24 08:12:20;;;;;;;47.03;8.75;;;;;;;32.30;100.00;99037.31;1709222;82;21094;-76
2021/06/24 08:14:48;;;;;;;47.83;8.25;;;;;;;32.34;100.00;99037.37;1695403;82;21341;-78
2021/06/24 08:17:16;;;;;;;40.05;8.18;;;;;;;32.35;100.00;99034.13;1683977;82;20916;-77
2021/06/24 08:19:43;;;;;;;54.80;9.15;;;;;;;32.37;100.00;99036.20;1705846;83;21425;-76
2021/06/24 08:22:11;;;;;;;41.48;7.87;;;;;;;32.42;100.00;99040.20;1701683;83;21084;-77
2021/06/24 08:24:39;;;;;;;45.05;8.53;;;;;;;32.50;100.00;99040.31;1713803;83;21039;-77
2021/06/24 08:27:07;;;;;;;47.45;9.03;;;;;;;32.59;100.00;99040.41;1695244;83;20970;-77
2021/06/24 08:29:34;;;;;;;49.53;8.00;;;;;;;32.68;100.00;99044.48;1690967;84;20927;-77
2021/06/24 08:32:01;;;;;;;53.95;8.10;;;;;;;32.74;100.00;99043.02;1687019;83;20908;-77
2021/06/24 08:34:29;;;;;;;38.80;7.37;;;;;;;32.83;100.00;99044.86;1699144;83;20895;-77
2021/06/24 08:36:57;;;;;;;49.55;9.58;;;;;;;32.85;100.00;99029.18;1689867;82;21164;-77
2021/06/24 08:39:25;;;;;;;41.65;7.55;;;;;;;32.89;100.00;99034.69;1710146;82;20892;-77
2021/06/24 08:41:54;;;;;;;56.65;8.10;;;;;;;32.95;100.00;99038.67;1702907;83;20884;-77
2021/06/24 08:44:23;;;;;;;52.05;8.20;;;;;;;33.00;100.00;99033.10;1702550;81;20928;-76
2021/06/24 08:46:54;;;;;;;53.48;9.00;;;;;;;33.07;100.00;99029.24;1717512;82;20971;-75
2021/06/24 08:49:26;;;;;;;36.40;6.87;;;;;;;33.11;100.00;99026.08;1713939;82;21097;-71
2021/06/24 08:51:58;;;;;;;40.33;6.83;;;;;;;33.16;100.00;99023.73;1709022;83;20874;-70
2021/06/24 08:54:27;;;;;;;49.08;7.90;;;;;;;33.22;100.00;99021.39;1700561;83;21967;-70
2021/06/24 08:56:55;;;;;;;49.50;7.30;;;;;;;33.27;100.00;99019.91;1690043;83;21023;-69
2021/06/24 08:59:24;;;;;;;48.35;7.45;;;;;;;33.37;100.00;99020.72;1682344;84;21495;-69
2021/06/24 09:01:59;;;;;;;57.48;7.45;;;;;;;33.46;100.00;99015.66;1705627;83;21491;-70
2021/06/24 09:04:31;;;;;;;46.35;8.95;;;;;;;33.53;100.00;99020.50;1693009;83;21010;-67
2021/06/24 09:07:07;;;;;;;42.62;7.45;;;;;;;33.58;100.00;99024.98;1697992;83;20970;-75
2021/06/24 09:09:37;;;;;;;41.90;7.28;;;;;;;33.66;100.00;99019.61;1690834;83;20904;-75
2021/06/24 09:12:11;;;;;;;42.17;8.10;;;;;;;33.75;100.00;99033.19;1696643;83;21415;-75
2021/06/24 09:14:53;;;;;;;51.33;8.38;;;;;;;33.85;100.00;99028.16;1697827;83;21094;-74
2021/06/24 09:17:40;;;;;;;45.98;6.95;;;;;;;33.92;100.00;99029.23;1702268;83;20948;-76
2021/06/24 09:20:29;;;;;;;48.73;7.70;;;;;;;33.98;100.00;99032.70;1697517;83;20900;-75
2021/06/24 09:23:24;;;;;;;45.40;8.18;;;;;;;34.05;100.00;99030.52;1692745;83;20943;-76
2021/06/24 09:26:14;;;;;;;35.10;7.62;;;;;;;34.10;100.00;99031.44;1631394;85;20933;-76
2021/06/24 09:28:49;;;;;;;37.10;7.67;;;;;;;34.13;100.00;99040.70;1705516;83;21119;-76
2021/06/24 09:31:33;;;;;;;175.60;17.77;;;;;;;34.15;100.00;99030.95;1653559;86;20985;-76
2021/06/24 09:34:05;;;;;;;46.98;8.65;;;;;;;34.16;100.00;99027.20;1700099;83;21158;-75
2021/06/24 09:36:41;;;;;;;41.55;7.65;;;;;;;34.21;100.00;99030.30;1691202;83;20923;-76
2021/06/24 09:39:26;;;;;;;48.35;7.25;;;;;;;34.25;100.00;99028.45;1694994;83;20943;-76
2021/06/24 09:42:08;;;;;;;44.15;7.08;;;;;;;34.33;100.00;99029.03;1673870;84;21120;-77
2021/06/24 09:44:37;;;;;;;56.68;7.80;;;;;;;34.34;100.00;99027.50;1707004;83;21428;-76
2021/06/24 09:47:29;;;;;;;30.75;6.75;;;;;;;34.37;100.00;99027.68;1713891;82;20896;-76
2021/06/24 09:50:10;;;;;;;46.65;8.90;;;;;;;34.44;100.00;99023.77;1709246;82;21569;-75
2021/06/24 09:52:38;;;;;;;42.73;7.53;;;;;;;34.51;100.00;99020.72;1713980;83;20928;-76
2021/06/24 09:55:18;;;;;;;41.92;7.00;;;;;;;34.60;100.00;99027.47;1715835;82;21071;-77
2021/06/24 09:57:44;;;;;;;40.75;6.97;;;;;;;34.69;100.00;99024.25;1709379;82;21371;-75
2021/06/24 10:00:25;;;;;;;36.55;6.70;;;;;;;34.74;100.00;99019.13;1713267;83;21514;-75
2021/06/24 10:03:14;;;;;;;39.20;6.85;;;;;;;34.81;100.00;99019.32;1714556;82;20880;-75
2021/06/24 10:05:43;;;;;;;43.87;6.80;;;;;;;34.90;99.56;99017.84;1713881;82;20897;-77
2021/06/24 10:08:16;;;;;;;35.65;5.72;;;;;;;35.01;98.91;99009.33;1712999;82;22969;-76
2021/06/24 10:10:45;;;;;;;38.92;6.33;;;;;;;35.13;98.81;99003.01;1715170;82;20944;-74
2021/06/24 10:13:13;;;;;;;33.00;5.95;;;;;;;35.22;95.85;99003.36;1710759;82;20927;-76
2021/06/24 10:15:41;;;;;;;42.23;7.17;;;;;;;35.31;92.00;99006.45;1709670;83;20943;-76
2021/06/24 10:18:10;;;;;;;33.75;6.05;;;;;;;35.36;89.42;99003.75;1692948;83;20923;-76
2021/06/24 10:20:44;;;;;;;44.08;6.70;;;;;;;35.37;89.33;99002.72;1713915;82;21392;-76
2021/06/24 10:23:13;;;;;;;37.75;6.85;;;;;;;35.37;89.18;99001.34;1718490;83;20904;-76
2021/06/24 10:25:44;;;;;;;29.23;6.15;;;;;;;35.41;90.69;99000.83;1704701;82;20888;-77
2021/06/24 10:28:17;;;;;;;32.40;5.57;;;;;;;35.49;91.72;98995.89;1713916;82;20857;-75
2021/06/24 10:30:43;;;;;;;34.95;5.30;;;;;;;35.52;90.22;98994.17;1712421;82;20928;-76
2021/06/24 10:33:16;;;;;;;39.23;6.53;;;;;;;35.60;86.01;98995.55;1708179;83;21372;-76
2021/06/24 10:35:51;;;;;;;34.30;6.62;;;;;;;35.63;85.21;98996.57;1714560;82;21113;-76
2021/06/24 10:38:18;;;;;;;28.90;5.47;;;;;;;35.61;80.57;98994.52;1714089;82;20869;-76
2021/06/24 10:40:57;;;;;;;28.50;5.87;;;;;;;35.65;83.05;98995.36;1711865;82;21341;-76
2021/06/24 10:45:25;;;;;;;38.50;5.95;;;;;;;35.85;76.42;98990.39;1799527;79;22724;-77
2021/06/24 10:47:55;;;;;;;34.70;6.07;;;;;;;35.89;74.95;98988.16;1760618;80;20967;-77
2021/06/24 10:50:33;;;;;;;35.08;5.37;;;;;;;35.97;75.60;98993.66;1759869;80;23032;-76
2021/06/24 10:53:11;;;;;;;35.08;5.62;;;;;;;36.04;74.28;98991.07;1760024;80;20876;-76
2021/06/24 10:55:41;;;;;;;25.00;4.83;;;;;;;36.12;72.81;98989.16;1759590;80;20983;-76
2021/06/24 10:58:26;;;;;;;33.73;5.17;;;;;;;36.22;71.09;98986.20;1760099;81;20967;-76
2021/06/24 11:01:00;;;;;;;26.33;5.30;;;;;;;36.28;72.98;98986.36;1759521;81;20983;-76
2021/06/24 11:03:35;;;;;;;32.17;5.00;;;;;;;36.39;72.86;98978.80;1759380;80;21139;-76
2021/06/24 11:06:13;;;;;;;35.25;5.15;;;;;;;36.48;70.14;98983.25;1759334;80;21384;-76
2021/06/24 11:08:42;;;;;;;23.95;4.33;;;;;;;36.51;69.40;98984.27;1759384;81;21461;-76
2021/06/24 11:11:13;;;;;;;26.40;5.05;;;;;;;36.55;67.69;98975.48;1759256;81;20896;-77
2021/06/24 11:13:47;;;;;;;19.95;3.77;;;;;;;36.62;68.32;98979.75;1759578;80;20963;-76
2021/06/24 11:16:20;;;;;;;25.95;4.42;;;;;;;36.68;67.52;98968.03;1759844;81;21288;-76
2021/06/24 11:18:59;;;;;;;22.02;4.25;;;;;;;36.72;63.94;98969.38;1759407;80;21438;-76
2021/06/24 11:21:31;;;;;;;22.55;4.65;;;;;;;36.76;65.37;98960.26;1758931;81;20967;-76
2021/06/24 11:24:02;;;;;;;28.05;5.30;;;;;;;36.79;63.80;98959.41;1726007;83;20895;-76
2021/06/24 11:26:38;;;;;;;24.45;4.83;;;;;;;36.84;61.87;98962.47;1724948;81;20887;-76
2021/06/24 11:29:29;;;;;;;21.30;4.37;;;;;;;36.91;62.02;98960.40;1726426;82;21968;-76
2021/06/24 11:32:05;;;;;;;;;;;;;;;36.94;62.71;98954.53;1728848;82;20965;-76
2021/06/24 11:37:06;;;;;;;24.90;4.87;;;;;;;36.96;58.54;98961.56;1712854;83;20916;-77
2021/06/24 11:39:40;;;;;;;;;;;;;;;36.95;59.87;98954.88;1715038;82;20892;-76
2021/06/24 11:42:16;;;;;;;24.98;4.67;;;;;;;36.96;58.08;98963.45;1723590;83;21135;-77
2021/06/24 11:44:50;;;;;;;20.32;4.53;;;;;;;36.98;60.98;98952.61;1720480;82;20939;-77
2021/06/24 11:47:21;;;;;;;28.77;5.20;;;;;;;37.04;64.48;98960.12;1718917;83;21430;-77
2021/06/24 12:04:22;;;;;;;19.07;3.75;;;;;;;37.28;64.13;98951.38;1718448;83;20944;-77